createdAt,value
2017-07-15T00:00:39.662Z,6.50
2017-07-15T00:01:36.458Z,6.80
2017-07-15T00:02:34.032Z,6.40
2017-07-15T00:03:31.112Z,7.50
2017-07-15T00:04:27.964Z,6.90
2017-07-15T00:05:28.373Z,7.10
2017-07-15T00:06:25.155Z,6.00
2017-07-15T00:07:22.787Z,6.60
2017-07-15T00:08:20.537Z,6.80
2017-07-15T00:09:19.407Z,6.20
2017-07-15T00:10:16.286Z,7.70
2017-07-15T00:11:13.701Z,7.50
2017-07-15T00:12:11.039Z,6.10
2017-07-15T00:13:08.400Z,6.80
2017-07-15T00:14:05.648Z,6.70
2017-07-15T00:15:02.464Z,7.00
2017-07-15T00:15:59.600Z,6.30
2017-07-15T00:16:56.760Z,6.50
2017-07-15T00:17:54.093Z,7.70
2017-07-15T00:18:51.259Z,6.90
2017-07-15T00:19:50.091Z,7.50
2017-07-15T00:20:47.632Z,7.00
2017-07-15T00:21:45.572Z,8.00
2017-07-15T00:22:43.130Z,6.70
2017-07-15T00:23:39.933Z,6.10
2017-07-15T00:24:37.727Z,6.30
2017-07-15T00:25:36.245Z,7.80
2017-07-15T00:26:33.625Z,7.30
2017-07-15T00:27:35.507Z,8.00
2017-07-15T00:28:38.002Z,7.20
2017-07-15T00:29:36.908Z,7.10
2017-07-15T00:30:34.343Z,6.50
2017-07-15T00:31:32.988Z,7.70
2017-07-15T00:32:32.672Z,7.00
2017-07-15T00:33:29.574Z,7.20
2017-07-15T00:34:27.449Z,6.90
2017-07-15T00:35:24.677Z,6.50
2017-07-15T00:36:22.406Z,7.40
2017-07-15T00:37:20.140Z,6.00
2017-07-15T00:38:17.223Z,6.90
2017-07-15T00:39:14.599Z,7.00
2017-07-15T00:40:24.244Z,6.90
2017-07-15T00:41:20.808Z,6.70
2017-07-15T00:42:17.257Z,7.00
2017-07-15T00:43:13.880Z,6.00
2017-07-15T00:44:10.419Z,6.80
2017-07-15T00:45:07.086Z,5.50
2017-07-15T00:46:03.766Z,5.80
2017-07-15T00:47:00.158Z,6.00
2017-07-15T00:47:56.607Z,4.90
2017-07-15T00:48:58.451Z,5.80
2017-07-15T00:49:55.388Z,6.20
2017-07-15T00:50:52.329Z,5.30
2017-07-15T00:51:49.330Z,5.00
2017-07-15T00:52:45.995Z,5.80
2017-07-15T00:53:43.673Z,5.70
2017-07-15T00:54:41.404Z,5.00
2017-07-15T00:55:38.543Z,5.70
2017-07-15T00:56:36.624Z,5.10
2017-07-15T00:57:40.564Z,5.60
2017-07-15T00:58:39.994Z,5.00
2017-07-15T00:59:38.228Z,5.50
2017-07-15T01:00:36.315Z,6.00
2017-07-15T01:01:34.483Z,5.30
2017-07-15T01:02:32.537Z,5.80
2017-07-15T01:03:30.682Z,4.90
2017-07-15T01:04:29.301Z,4.80
2017-07-15T01:05:27.233Z,5.50
2017-07-15T01:06:26.956Z,5.40
2017-07-15T01:07:31.873Z,6.00
2017-07-15T01:08:31.633Z,4.80
2017-07-15T01:09:28.496Z,6.40
2017-07-15T01:10:25.739Z,5.10
2017-07-15T01:11:22.147Z,4.90
2017-07-15T01:12:19.180Z,5.10
2017-07-15T01:13:18.976Z,5.10
2017-07-15T01:14:15.286Z,4.40
2017-07-15T01:15:11.579Z,5.00
2017-07-15T01:16:07.818Z,3.80
2017-07-15T01:17:04.090Z,5.70
2017-07-15T01:18:00.339Z,4.30
2017-07-15T01:18:56.592Z,4.80
2017-07-15T01:21:05.077Z,4.90
2017-07-15T01:22:02.819Z,4.80
2017-07-15T01:23:00.675Z,5.30
2017-07-15T01:23:58.108Z,4.50
2017-07-15T01:24:54.889Z,4.10
2017-07-15T01:25:51.539Z,4.90
2017-07-15T01:26:48.500Z,5.10
2017-07-15T01:27:46.239Z,4.70
2017-07-15T01:28:45.177Z,4.70
2017-07-15T01:29:42.701Z,5.20
2017-07-15T01:30:41.485Z,4.90
2017-07-15T01:31:38.160Z,5.50
2017-07-15T01:32:36.220Z,5.70
2017-07-15T01:33:41.647Z,4.60
2017-07-15T01:34:39.171Z,4.50
2017-07-15T01:35:36.391Z,5.10
2017-07-15T01:36:33.606Z,4.90
2017-07-15T01:37:31.336Z,4.10
2017-07-15T01:38:28.088Z,4.40
2017-07-15T01:39:24.697Z,3.60
2017-07-15T01:40:22.417Z,4.70
2017-07-15T01:41:19.988Z,4.30
2017-07-15T01:42:16.826Z,4.10
2017-07-15T01:43:15.574Z,4.00
2017-07-15T01:44:15.671Z,3.60
2017-07-15T01:45:12.276Z,4.00
2017-07-15T01:46:08.992Z,4.00
2017-07-15T01:47:05.597Z,3.30
2017-07-15T01:48:01.960Z,3.30
2017-07-15T01:48:58.206Z,3.50
2017-07-15T01:49:54.479Z,3.60
2017-07-15T01:50:50.723Z,3.20
2017-07-15T01:51:46.979Z,3.00
2017-07-15T01:52:43.219Z,2.90
2017-07-15T01:53:39.471Z,3.10
2017-07-15T01:54:35.702Z,3.40
2017-07-15T01:55:31.947Z,3.00
2017-07-15T01:56:28.309Z,3.00
2017-07-15T01:57:24.544Z,3.80
2017-07-15T01:58:20.805Z,3.10
2017-07-15T01:59:17.046Z,2.70
2017-07-15T02:00:13.307Z,2.70
2017-07-15T02:01:09.571Z,3.10
2017-07-15T02:02:05.814Z,3.10
2017-07-15T02:03:02.055Z,3.60
2017-07-15T02:03:58.315Z,2.50
2017-07-15T02:04:54.563Z,3.10
2017-07-15T02:05:50.810Z,2.60
2017-07-15T02:06:47.055Z,2.50
2017-07-15T02:07:43.300Z,2.80
2017-07-15T02:08:39.563Z,2.80
2017-07-15T02:09:35.807Z,2.90
2017-07-15T02:10:32.054Z,2.80
2017-07-15T02:11:28.291Z,2.70
2017-07-15T02:12:24.541Z,2.80
2017-07-15T02:13:20.783Z,3.20
2017-07-15T02:14:17.043Z,2.90
2017-07-15T02:15:13.274Z,4.90
2017-07-15T02:16:09.515Z,3.00
2017-07-15T02:17:05.751Z,2.70
2017-07-15T02:18:01.978Z,3.80
2017-07-15T02:18:58.219Z,2.40
2017-07-15T02:19:54.483Z,3.00
2017-07-15T02:20:50.726Z,3.10
2017-07-15T02:21:46.951Z,2.70
2017-07-15T02:22:43.194Z,2.90
2017-07-15T02:23:39.439Z,3.40
2017-07-15T02:24:35.682Z,3.40
2017-07-15T02:25:31.920Z,3.40
2017-07-15T02:26:28.159Z,3.50
2017-07-15T02:27:24.392Z,3.00
2017-07-15T02:28:20.632Z,3.70
2017-07-15T02:29:16.870Z,3.50
2017-07-15T02:30:13.129Z,3.30
2017-07-15T02:31:09.378Z,4.10
2017-07-15T02:32:05.606Z,3.80
2017-07-15T02:33:01.842Z,3.60
2017-07-15T02:33:58.079Z,2.70
2017-07-15T02:34:54.339Z,2.80
2017-07-15T02:35:50.579Z,3.70
2017-07-15T02:36:46.824Z,3.40
2017-07-15T02:37:43.063Z,3.20
2017-07-15T02:38:39.295Z,3.80
2017-07-15T02:39:35.523Z,2.80
2017-07-15T02:40:31.783Z,3.50
2017-07-15T02:41:28.022Z,3.20
2017-07-15T02:42:24.269Z,3.10
2017-07-15T02:43:20.511Z,2.90
2017-07-15T02:44:16.759Z,2.90
2017-07-15T02:45:13.004Z,3.30
2017-07-15T02:46:09.270Z,3.10
2017-07-15T02:47:05.524Z,2.80
2017-07-15T02:48:01.763Z,3.10
2017-07-15T02:48:57.999Z,3.10
2017-07-15T02:49:54.239Z,3.20
2017-07-15T02:50:50.511Z,3.30
2017-07-15T02:51:46.755Z,3.20
2017-07-15T02:52:42.996Z,2.90
2017-07-15T02:53:39.247Z,2.90
2017-07-15T02:54:35.487Z,3.60
2017-07-15T02:55:31.728Z,3.20
2017-07-15T02:56:28.003Z,3.20
2017-07-15T02:57:24.264Z,3.10
2017-07-15T02:58:20.511Z,3.70
2017-07-15T02:59:16.762Z,3.20
2017-07-15T03:00:13.012Z,3.90
2017-07-15T03:01:09.263Z,3.90
2017-07-15T03:02:05.519Z,2.90
2017-07-15T03:03:01.754Z,3.40
2017-07-15T03:03:57.997Z,3.30
2017-07-15T03:04:54.244Z,3.70
2017-07-15T03:05:50.487Z,3.50
2017-07-15T03:06:46.747Z,3.40
2017-07-15T03:07:42.987Z,3.50
2017-07-15T03:08:39.226Z,3.80
2017-07-15T03:09:35.468Z,3.30
2017-07-15T03:10:31.699Z,3.80
2017-07-15T03:11:27.967Z,3.90
2017-07-15T03:12:24.215Z,3.40
2017-07-15T03:13:20.454Z,4.20
2017-07-15T03:14:16.698Z,3.70
2017-07-15T03:15:12.942Z,4.40
2017-07-15T03:16:09.189Z,4.20
2017-07-15T03:17:05.449Z,3.80
2017-07-15T03:18:01.706Z,4.40
2017-07-15T03:18:57.951Z,3.50
2017-07-15T03:19:54.190Z,4.00
2017-07-15T03:20:50.434Z,4.00
2017-07-15T03:21:46.683Z,4.10
2017-07-15T03:22:42.941Z,3.70
2017-07-15T03:23:39.185Z,4.00
2017-07-15T03:24:35.419Z,3.80
2017-07-15T03:25:31.647Z,3.70
2017-07-15T03:26:27.930Z,3.80
2017-07-15T03:27:24.139Z,4.10
2017-07-15T03:28:20.394Z,3.90
2017-07-15T03:29:16.629Z,4.10
2017-07-15T03:30:12.878Z,4.10
2017-07-15T03:31:09.110Z,3.60
2017-07-15T03:32:05.363Z,4.10
2017-07-15T03:33:01.618Z,4.10
2017-07-15T03:33:57.884Z,4.30
2017-07-15T03:34:54.139Z,3.80
2017-07-15T03:35:50.374Z,3.80
2017-07-15T03:36:46.611Z,4.80
2017-07-15T03:37:42.870Z,4.10
2017-07-15T03:38:39.131Z,4.70
2017-07-15T03:39:35.371Z,4.70
2017-07-15T03:40:31.606Z,4.50
2017-07-15T03:41:27.835Z,4.70
2017-07-15T03:42:24.071Z,5.10
2017-07-15T03:43:20.342Z,4.70
2017-07-15T03:44:16.591Z,5.30
2017-07-15T03:45:12.829Z,4.60
2017-07-15T03:46:09.081Z,4.20
2017-07-15T03:47:05.317Z,4.80
2017-07-15T03:48:01.589Z,4.90
2017-07-15T03:48:57.834Z,4.10
2017-07-15T03:49:54.078Z,5.10
2017-07-15T03:50:50.315Z,4.00
2017-07-15T03:51:46.559Z,4.90
2017-07-15T03:52:42.807Z,4.80
2017-07-15T03:53:39.072Z,6.10
2017-07-15T03:54:35.318Z,5.20
2017-07-15T03:55:31.564Z,5.50
2017-07-15T03:56:27.823Z,4.60
2017-07-15T03:57:24.059Z,4.20
2017-07-15T03:58:20.302Z,5.00
2017-07-15T03:59:16.558Z,5.60
2017-07-15T04:00:12.797Z,4.90
2017-07-15T04:01:09.047Z,4.80
2017-07-15T04:02:05.290Z,4.80
2017-07-15T04:03:01.531Z,4.10
2017-07-15T04:03:57.773Z,4.90
2017-07-15T04:04:54.032Z,4.40
2017-07-15T04:05:50.273Z,4.60
2017-07-15T04:06:46.511Z,4.70
2017-07-15T04:07:42.751Z,4.10
2017-07-15T04:08:38.995Z,4.60
2017-07-15T04:09:35.250Z,4.70
2017-07-15T04:10:31.483Z,4.60
2017-07-15T04:11:27.722Z,4.00
2017-07-15T04:12:23.962Z,4.10
2017-07-15T04:13:20.203Z,4.30
2017-07-15T04:14:16.442Z,5.00
2017-07-15T04:15:12.699Z,4.30
2017-07-15T04:16:08.938Z,5.20
2017-07-15T04:17:05.199Z,6.70
2017-07-15T04:18:01.442Z,4.20
2017-07-15T04:18:57.693Z,4.40
2017-07-15T04:19:53.940Z,4.70
2017-07-15T04:20:50.196Z,4.70
2017-07-15T04:21:46.436Z,5.70
2017-07-15T04:22:42.674Z,3.90
2017-07-15T04:23:38.910Z,4.50
2017-07-15T04:24:35.137Z,4.60
2017-07-15T04:25:31.388Z,5.00
2017-07-15T04:26:27.687Z,5.70
2017-07-15T04:27:23.967Z,5.40
2017-07-15T04:28:20.250Z,5.60
2017-07-15T04:29:16.541Z,5.60
2017-07-15T04:30:12.827Z,5.70
2017-07-15T04:31:09.082Z,6.30
2017-07-15T04:32:05.371Z,5.60
2017-07-15T04:33:01.599Z,6.20
2017-07-15T04:33:57.842Z,6.30
2017-07-15T04:34:54.087Z,6.00
2017-07-15T04:35:50.326Z,7.40
2017-07-15T04:36:46.597Z,6.10
2017-07-15T04:37:42.839Z,5.80
2017-07-15T04:38:39.083Z,5.40
2017-07-15T04:39:35.330Z,6.00
2017-07-15T04:40:31.570Z,6.40
2017-07-15T04:41:27.833Z,5.40
2017-07-15T04:42:24.083Z,6.00
2017-07-15T04:43:20.345Z,6.60
2017-07-15T04:44:16.589Z,6.40
2017-07-15T04:45:12.823Z,5.80
2017-07-15T04:46:09.059Z,6.80
2017-07-15T04:47:05.328Z,6.20
2017-07-15T04:48:01.571Z,6.10
2017-07-15T04:48:57.815Z,5.80
2017-07-15T04:49:54.063Z,5.70
2017-07-15T04:50:50.302Z,6.30
2017-07-15T04:51:46.567Z,5.80
2017-07-15T04:52:42.808Z,5.70
2017-07-15T04:53:39.059Z,5.40
2017-07-15T04:54:35.302Z,6.50
2017-07-15T04:55:31.543Z,6.10
2017-07-15T04:56:27.783Z,5.50
2017-07-15T04:57:24.047Z,5.60
2017-07-15T04:58:20.279Z,5.30
2017-07-15T04:59:16.514Z,4.70
2017-07-15T05:00:12.750Z,6.70
2017-07-15T05:01:08.993Z,6.40
2017-07-15T05:02:05.238Z,5.50
2017-07-15T05:03:01.487Z,5.90
2017-07-15T05:03:57.716Z,6.20
2017-07-15T05:04:53.971Z,6.00
2017-07-15T05:05:50.207Z,5.00
2017-07-15T05:06:46.454Z,5.00
2017-07-15T05:07:42.690Z,5.10
2017-07-15T05:08:38.946Z,5.20
2017-07-15T05:09:35.187Z,4.70
2017-07-15T05:10:31.417Z,5.40
2017-07-15T05:11:27.654Z,5.40
2017-07-15T05:12:23.891Z,6.10
2017-07-15T05:13:20.143Z,4.80
2017-07-15T05:14:16.381Z,5.10
2017-07-15T05:15:12.645Z,5.70
2017-07-15T05:16:08.879Z,4.50
2017-07-15T05:17:05.116Z,5.20
2017-07-15T05:18:01.363Z,6.40
2017-07-15T05:18:57.619Z,4.90
2017-07-15T05:19:53.863Z,5.30
2017-07-15T05:20:50.122Z,4.40
2017-07-15T05:21:46.362Z,5.00
2017-07-15T05:22:42.598Z,5.30
2017-07-15T05:23:38.838Z,4.00
2017-07-15T05:24:35.106Z,4.90
2017-07-15T05:25:31.343Z,5.40
2017-07-15T05:26:27.591Z,4.50
2017-07-15T05:27:23.835Z,4.50
2017-07-15T05:28:20.083Z,4.50
2017-07-15T05:29:16.322Z,4.10
2017-07-15T05:30:12.572Z,5.90
2017-07-15T05:31:08.806Z,4.30
2017-07-15T05:32:05.035Z,4.20
2017-07-15T05:33:01.274Z,4.90
2017-07-15T05:33:57.515Z,4.80
2017-07-15T05:34:53.778Z,4.80
2017-07-15T05:35:50.028Z,4.00
2017-07-15T05:36:46.270Z,4.00
2017-07-15T05:37:42.508Z,4.80
2017-07-15T05:39:47.807Z,5.20
2017-07-15T05:40:44.067Z,4.20
2017-07-15T05:41:40.303Z,4.80
2017-07-15T05:42:36.566Z,4.50
2017-07-15T05:43:55.999Z,4.30
2017-07-15T05:44:52.258Z,4.20
2017-07-15T05:45:48.523Z,4.30
2017-07-15T05:46:44.759Z,5.30
2017-07-15T05:47:40.994Z,4.40
2017-07-15T05:48:37.239Z,3.80
2017-07-15T05:49:33.470Z,4.20
2017-07-15T05:50:29.732Z,4.40
2017-07-15T05:51:25.991Z,3.50
2017-07-15T05:53:26.136Z,4.60
2017-07-15T05:54:22.404Z,4.30
2017-07-15T05:55:18.671Z,4.70
2017-07-15T05:56:14.935Z,5.40
2017-07-15T05:57:11.175Z,3.70
2017-07-15T05:58:07.419Z,4.10
2017-07-15T05:59:03.670Z,4.10
2017-07-15T05:59:59.921Z,4.10
2017-07-15T06:00:56.183Z,3.80
2017-07-15T06:01:52.427Z,3.60
2017-07-15T06:02:48.690Z,3.80
2017-07-15T06:03:44.971Z,3.80
2017-07-15T06:04:41.208Z,3.70
2017-07-15T06:05:37.451Z,3.90
2017-07-15T06:06:33.722Z,3.20
2017-07-15T06:07:29.987Z,3.30
2017-07-15T06:08:26.235Z,3.50
2017-07-15T06:09:22.490Z,3.10
2017-07-15T06:10:18.740Z,3.60
2017-07-15T06:11:15.021Z,3.30
2017-07-15T06:12:11.279Z,3.30
2017-07-15T06:13:07.524Z,3.70
2017-07-15T06:14:03.794Z,3.90
2017-07-15T06:15:00.089Z,3.90
2017-07-15T06:15:56.357Z,3.00
2017-07-15T06:16:52.635Z,3.00
2017-07-15T06:17:48.879Z,3.50
2017-07-15T06:18:45.114Z,2.90
2017-07-15T06:19:41.365Z,3.80
2017-07-15T06:20:37.608Z,3.30
2017-07-15T06:21:33.874Z,3.80
2017-07-15T06:22:30.114Z,3.50
2017-07-15T06:23:26.358Z,4.10
2017-07-15T06:24:22.602Z,3.70
2017-07-15T06:25:18.843Z,3.40
2017-07-15T06:26:15.097Z,3.90
2017-07-15T06:27:11.354Z,3.70
2017-07-15T06:28:07.622Z,4.20
2017-07-15T06:29:03.870Z,4.20
2017-07-15T06:30:00.118Z,3.90
2017-07-15T06:30:56.369Z,3.90
2017-07-15T06:31:52.650Z,3.50
2017-07-15T06:32:48.895Z,3.60
2017-07-15T06:33:45.144Z,3.20
2017-07-15T06:34:41.391Z,3.70
2017-07-15T06:35:37.645Z,3.80
2017-07-15T06:36:33.892Z,2.60
2017-07-15T06:37:30.168Z,3.20
2017-07-15T06:38:26.419Z,3.80
2017-07-15T06:39:22.667Z,3.20
2017-07-15T06:40:18.919Z,4.00
2017-07-15T06:41:15.163Z,3.60
2017-07-15T06:42:11.419Z,3.20
2017-07-15T06:43:07.687Z,2.90
2017-07-15T06:44:03.943Z,3.30
2017-07-15T06:45:00.182Z,3.40
2017-07-15T06:45:56.439Z,3.60
2017-07-15T06:46:52.687Z,3.20
2017-07-15T06:47:48.931Z,3.00
2017-07-15T06:48:45.183Z,3.30
2017-07-15T06:49:41.439Z,4.30
2017-07-15T06:50:37.679Z,2.70
2017-07-15T06:51:33.931Z,2.30
2017-07-15T06:52:30.179Z,3.20
2017-07-15T06:53:26.439Z,3.00
2017-07-15T06:54:22.690Z,3.10
2017-07-15T06:55:18.938Z,4.20
2017-07-15T06:56:15.179Z,4.20
2017-07-15T06:57:11.431Z,3.30
2017-07-15T06:58:07.687Z,3.30
2017-07-15T06:59:03.952Z,2.60
2017-07-15T07:00:00.182Z,2.60
2017-07-15T07:00:56.419Z,3.00
2017-07-15T07:01:52.681Z,3.20
2017-07-15T07:02:48.923Z,3.70
2017-07-15T07:03:45.199Z,4.20
2017-07-15T07:04:41.447Z,2.60
2017-07-15T07:05:37.692Z,2.70
2017-07-15T07:06:33.931Z,2.60
2017-07-15T07:07:30.197Z,2.90
2017-07-15T07:08:26.471Z,3.60
2017-07-15T07:09:22.743Z,2.20
2017-07-15T07:10:18.988Z,2.70
2017-07-15T07:11:15.231Z,2.70
2017-07-15T07:12:11.487Z,2.40
2017-07-15T07:13:07.745Z,2.70
2017-07-15T07:14:03.982Z,3.00
2017-07-15T07:15:00.240Z,3.30
2017-07-15T07:15:56.483Z,2.70
2017-07-15T07:16:52.739Z,2.60
2017-07-15T07:17:48.994Z,3.10
2017-07-15T07:18:45.239Z,2.80
2017-07-15T07:19:41.499Z,2.90
2017-07-15T07:20:37.758Z,2.80
2017-07-15T07:21:33.999Z,2.90
2017-07-15T07:22:30.265Z,3.40
2017-07-15T07:23:26.506Z,3.50
2017-07-15T07:24:22.759Z,2.60
2017-07-15T07:25:19.023Z,2.40
2017-07-15T07:26:15.280Z,2.80
2017-07-15T07:27:11.518Z,2.50
2017-07-15T07:28:07.791Z,2.50
2017-07-15T07:29:04.029Z,2.50
2017-07-15T07:30:00.275Z,3.10
2017-07-15T07:30:56.535Z,2.50
2017-07-15T07:31:52.811Z,2.70
2017-07-15T07:32:49.114Z,3.40
2017-07-15T07:33:45.375Z,2.80
2017-07-15T07:34:41.636Z,2.90
2017-07-15T07:35:37.899Z,2.30
2017-07-15T07:36:34.146Z,2.30
2017-07-15T07:37:30.386Z,3.00
2017-07-15T07:38:26.631Z,2.50
2017-07-15T07:39:22.969Z,3.00
2017-07-15T07:40:21.686Z,2.60
2017-07-15T07:41:35.539Z,2.60
2017-07-15T07:42:46.799Z,2.30
2017-07-15T07:43:44.874Z,2.90
2017-07-15T07:44:41.804Z,2.70
2017-07-15T07:45:40.623Z,2.90
2017-07-15T07:46:37.573Z,2.60
2017-07-15T07:47:34.330Z,2.60
2017-07-15T07:48:31.159Z,2.50
2017-07-15T07:49:27.560Z,2.30
2017-07-15T07:50:23.826Z,2.90
2017-07-15T07:51:20.075Z,2.30
2017-07-15T07:52:21.656Z,3.00
2017-07-15T07:54:24.224Z,2.20
2017-07-15T07:55:20.483Z,2.50
2017-07-15T07:56:16.724Z,2.60
2017-07-15T07:57:12.987Z,2.50
2017-07-15T07:58:12.463Z,2.30
2017-07-15T07:59:08.792Z,2.20
2017-07-15T08:00:07.967Z,2.50
2017-07-15T08:01:05.312Z,2.90
2017-07-15T08:02:01.892Z,2.60
2017-07-15T08:02:58.315Z,2.30
2017-07-15T08:03:55.371Z,2.60
2017-07-15T08:04:51.927Z,2.50
2017-07-15T08:05:48.619Z,2.10
2017-07-15T08:06:50.549Z,2.50
2017-07-15T08:07:48.836Z,2.00
2017-07-15T08:08:46.096Z,2.10
2017-07-15T08:09:42.527Z,2.50
2017-07-15T08:10:40.211Z,2.10
2017-07-15T08:12:39.911Z,3.00
2017-07-15T08:13:37.140Z,2.10
2017-07-15T08:14:33.571Z,2.30
2017-07-15T08:15:30.040Z,1.90
2017-07-15T08:16:26.295Z,2.30
2017-07-15T08:17:22.538Z,2.30
2017-07-15T08:18:18.915Z,2.00
2017-07-15T08:19:15.154Z,2.00
2017-07-15T08:20:11.399Z,2.20
2017-07-15T08:21:07.755Z,2.50
2017-07-15T08:22:04.080Z,2.30
2017-07-15T08:23:00.606Z,1.60
2017-07-15T08:25:04.287Z,2.40
2017-07-15T08:26:01.574Z,1.80
2017-07-15T08:26:57.878Z,2.30
2017-07-15T08:27:54.162Z,3.20
2017-07-15T08:28:54.580Z,1.50
2017-07-15T08:29:50.921Z,2.00
2017-07-15T08:30:47.384Z,2.00
2017-07-15T08:31:43.757Z,2.40
2017-07-15T08:32:40.005Z,2.10
2017-07-15T08:33:36.342Z,2.10
2017-07-15T08:34:32.597Z,1.90
2017-07-15T08:35:28.870Z,1.90
2017-07-15T08:36:27.158Z,2.10
2017-07-15T08:37:24.492Z,2.00
2017-07-15T08:38:20.967Z,1.90
2017-07-15T08:39:17.232Z,2.60
2017-07-15T08:40:16.498Z,2.00
2017-07-15T08:41:12.880Z,1.70
2017-07-15T08:42:09.614Z,1.50
2017-07-15T08:43:05.887Z,1.50
2017-07-15T08:44:02.271Z,1.50
2017-07-15T08:44:58.532Z,1.80
2017-07-15T08:45:54.787Z,2.10
2017-07-15T08:46:55.026Z,2.00
2017-07-15T08:47:51.292Z,1.60
2017-07-15T08:48:47.553Z,1.90
2017-07-15T08:49:43.830Z,1.70
2017-07-15T08:50:41.115Z,1.80
2017-07-15T08:51:37.375Z,2.10
2017-07-15T08:52:33.620Z,1.40
2017-07-15T08:53:29.875Z,1.50
2017-07-15T08:54:26.155Z,1.60
2017-07-15T08:55:22.423Z,2.00
2017-07-15T08:56:18.689Z,3.60
2017-07-15T08:57:14.942Z,2.00
2017-07-15T08:58:11.199Z,1.80
2017-07-15T08:59:07.447Z,1.70
2017-07-15T09:00:03.690Z,1.80
2017-07-15T09:00:59.971Z,1.40
2017-07-15T09:01:56.222Z,2.00
2017-07-15T09:02:52.462Z,1.90
2017-07-15T09:03:48.721Z,1.80
2017-07-15T09:04:44.958Z,1.60
2017-07-15T09:05:41.222Z,1.40
2017-07-15T09:06:37.479Z,1.80
2017-07-15T09:07:33.762Z,2.10
2017-07-15T09:08:30.034Z,1.40
2017-07-15T09:09:26.283Z,1.70
2017-07-15T09:10:22.541Z,1.70
2017-07-15T09:11:18.834Z,2.20
2017-07-15T09:12:15.091Z,1.80
2017-07-15T09:13:11.350Z,1.70
2017-07-15T09:14:07.603Z,1.50
2017-07-15T09:15:03.858Z,1.60
2017-07-15T09:16:00.122Z,1.40
2017-07-15T09:16:56.383Z,1.80
2017-07-15T09:17:53.439Z,1.80
2017-07-15T09:18:50.825Z,1.40
2017-07-15T09:19:47.364Z,1.30
2017-07-15T09:20:43.630Z,1.80
2017-07-15T09:21:40.179Z,1.50
2017-07-15T09:22:41.509Z,1.20
2017-07-15T09:23:40.017Z,1.60
2017-07-15T09:24:36.756Z,1.20
2017-07-15T09:25:33.355Z,1.20
2017-07-15T09:26:29.918Z,1.50
2017-07-15T09:27:27.519Z,1.50
2017-07-15T09:28:24.112Z,1.40
2017-07-15T09:29:20.446Z,1.30
2017-07-15T09:30:16.793Z,1.20
2017-07-15T09:31:13.083Z,1.60
2017-07-15T09:32:09.525Z,1.60
2017-07-15T09:33:05.921Z,1.60
2017-07-15T09:34:02.415Z,1.80
2017-07-15T09:34:58.923Z,1.70
2017-07-15T09:35:55.410Z,1.70
2017-07-15T09:36:52.125Z,1.80
2017-07-15T09:37:48.593Z,1.60
2017-07-15T09:38:44.984Z,1.50
2017-07-15T09:39:42.352Z,1.50
2017-07-15T09:40:39.670Z,1.70
2017-07-15T09:41:36.046Z,1.40
2017-07-15T09:42:32.322Z,1.60
2017-07-15T09:43:28.955Z,1.50
2017-07-15T09:44:25.294Z,1.90
2017-07-15T09:45:21.732Z,1.90
2017-07-15T09:46:18.019Z,1.50
2017-07-15T09:47:14.524Z,1.60
2017-07-15T09:48:10.945Z,1.60
2017-07-15T09:49:07.232Z,1.60
2017-07-15T09:50:03.541Z,2.00
2017-07-15T09:51:00.569Z,1.80
2017-07-15T09:51:56.870Z,1.60
2017-07-15T09:52:53.951Z,1.60
2017-07-15T09:53:50.721Z,1.80
2017-07-15T09:54:47.564Z,1.90
2017-07-15T09:55:43.911Z,1.90
2017-07-15T09:56:40.598Z,1.60
2017-07-15T09:57:36.994Z,3.70
2017-07-15T09:58:33.511Z,1.60
2017-07-15T09:59:29.981Z,1.40
2017-07-15T10:00:26.420Z,1.70
2017-07-15T10:01:22.845Z,1.60
2017-07-15T10:02:19.383Z,1.70
2017-07-15T10:03:15.845Z,1.30
2017-07-15T10:04:12.463Z,1.90
2017-07-15T10:05:08.986Z,1.70
2017-07-15T10:06:05.708Z,1.60
2017-07-15T10:07:02.285Z,1.40
2017-07-15T10:07:58.847Z,2.00
2017-07-15T10:08:55.103Z,1.60
2017-07-15T10:09:52.575Z,1.30
2017-07-15T10:10:49.971Z,1.50
2017-07-15T10:11:46.677Z,1.80
2017-07-15T10:12:44.896Z,1.60
2017-07-15T10:13:41.717Z,1.70
2017-07-15T10:14:38.421Z,1.80
2017-07-15T10:15:35.072Z,1.10
2017-07-15T10:16:31.550Z,1.80
2017-07-15T10:17:28.474Z,1.70
2017-07-15T10:18:24.971Z,1.20
2017-07-15T10:19:21.444Z,1.50
2017-07-15T10:20:17.891Z,2.10
2017-07-15T10:21:14.146Z,1.50
2017-07-15T10:22:10.386Z,1.40
2017-07-15T10:23:06.671Z,1.60
2017-07-15T10:24:02.935Z,1.40
2017-07-15T10:24:59.183Z,1.70
2017-07-15T10:25:55.751Z,1.40
2017-07-15T10:26:52.883Z,1.10
2017-07-15T10:27:49.207Z,1.50
2017-07-15T10:28:46.159Z,1.20
2017-07-15T10:29:42.399Z,1.60
2017-07-15T10:30:38.638Z,1.70
2017-07-15T10:31:34.879Z,1.40
2017-07-15T10:32:31.128Z,1.50
2017-07-15T10:33:27.391Z,1.40
2017-07-15T10:34:23.635Z,1.70
2017-07-15T10:35:19.887Z,1.40
2017-07-15T10:36:16.123Z,1.70
2017-07-15T10:37:12.635Z,2.10
2017-07-15T10:38:08.883Z,1.90
2017-07-15T10:39:05.146Z,1.70
2017-07-15T10:40:01.427Z,1.20
2017-07-15T10:40:57.687Z,1.60
2017-07-15T10:41:53.934Z,1.70
2017-07-15T10:42:50.183Z,1.90
2017-07-15T10:43:46.467Z,1.40
2017-07-15T10:44:42.718Z,1.80
2017-07-15T10:45:38.960Z,1.40
2017-07-15T10:46:35.208Z,1.10
2017-07-15T10:47:31.448Z,1.50
2017-07-15T10:48:27.712Z,1.50
2017-07-15T10:49:23.967Z,1.40
2017-07-15T10:50:20.206Z,1.30
2017-07-15T10:51:16.676Z,1.40
2017-07-15T10:52:14.087Z,1.50
2017-07-15T10:53:10.527Z,1.70
2017-07-15T10:54:06.834Z,1.30
2017-07-15T10:55:03.087Z,1.70
2017-07-15T10:55:59.336Z,1.10
2017-07-15T10:56:55.575Z,1.60
2017-07-15T10:57:51.815Z,1.40
2017-07-15T10:58:48.099Z,1.70
2017-07-15T10:59:44.338Z,2.10
2017-07-15T11:00:40.570Z,1.60
2017-07-15T11:01:36.815Z,1.30
2017-07-15T11:02:33.058Z,1.40
2017-07-15T11:03:29.306Z,1.90
2017-07-15T11:04:25.567Z,1.20
2017-07-15T11:05:21.807Z,1.30
2017-07-15T11:06:18.051Z,1.50
2017-07-15T11:07:14.306Z,1.70
2017-07-15T11:08:10.555Z,1.40
2017-07-15T11:09:06.831Z,1.30
2017-07-15T11:10:03.074Z,1.30
2017-07-15T11:10:59.318Z,1.20
2017-07-15T11:11:55.571Z,2.10
2017-07-15T11:12:51.811Z,1.60
2017-07-15T11:13:48.071Z,1.50
2017-07-15T11:14:44.319Z,1.50
2017-07-15T11:15:40.567Z,1.30
2017-07-15T11:16:36.811Z,1.30
2017-07-15T11:17:33.055Z,1.70
2017-07-15T11:18:29.296Z,1.30
2017-07-15T11:19:25.584Z,1.70
2017-07-15T11:20:21.832Z,1.40
2017-07-15T11:21:18.075Z,1.70
2017-07-15T11:22:14.314Z,1.90
2017-07-15T11:23:10.572Z,1.80
2017-07-15T11:24:06.834Z,1.30
2017-07-15T11:25:03.093Z,1.30
2017-07-15T11:25:59.327Z,1.30
2017-07-15T11:26:55.587Z,1.50
2017-07-15T11:27:51.847Z,1.60
2017-07-15T11:28:48.102Z,1.30
2017-07-15T11:29:44.364Z,1.80
2017-07-15T11:30:40.619Z,1.50
2017-07-15T11:31:36.875Z,1.70
2017-07-15T11:32:33.126Z,1.80
2017-07-15T11:33:29.362Z,1.60
2017-07-15T11:34:25.613Z,1.30
2017-07-15T11:35:21.850Z,1.60
2017-07-15T11:36:18.096Z,1.80
2017-07-15T11:37:14.342Z,1.40
2017-07-15T11:38:10.591Z,1.40
2017-07-15T11:39:06.831Z,1.50
2017-07-15T11:40:03.086Z,1.20
2017-07-15T11:40:59.343Z,1.40
2017-07-15T11:41:55.587Z,1.50
2017-07-15T11:42:51.831Z,1.40
2017-07-15T11:43:48.403Z,1.30
2017-07-15T11:44:44.667Z,1.60
2017-07-15T11:45:40.914Z,1.50
2017-07-15T11:46:37.154Z,1.30
2017-07-15T11:47:33.400Z,1.30
2017-07-15T11:48:29.643Z,1.60
2017-07-15T11:49:25.883Z,1.30
2017-07-15T11:50:22.135Z,1.70
2017-07-15T11:51:18.381Z,1.30
2017-07-15T11:52:14.619Z,1.50
2017-07-15T11:53:10.866Z,1.40
2017-07-15T11:54:07.110Z,1.40
2017-07-15T11:55:03.354Z,1.20
2017-07-15T11:55:59.595Z,1.60
2017-07-15T11:56:55.839Z,1.20
2017-07-15T11:57:52.075Z,1.20
2017-07-15T11:58:48.319Z,1.20
2017-07-15T11:59:44.559Z,1.90
2017-07-15T12:00:40.815Z,1.40
2017-07-15T12:01:37.051Z,1.70
2017-07-15T12:02:33.294Z,1.40
2017-07-15T12:03:29.534Z,1.20
2017-07-15T12:04:25.775Z,1.10
2017-07-15T12:05:22.023Z,1.00
2017-07-15T12:06:18.286Z,1.30
2017-07-15T12:07:14.566Z,1.00
2017-07-15T12:08:10.807Z,1.30
2017-07-15T12:09:07.047Z,1.30
2017-07-15T12:10:03.290Z,1.40
2017-07-15T12:10:59.559Z,1.30
2017-07-15T12:11:55.811Z,1.50
2017-07-15T12:12:52.059Z,1.30
2017-07-15T12:13:48.298Z,1.20
2017-07-15T12:14:44.538Z,1.70
2017-07-15T12:15:40.799Z,1.30
2017-07-15T12:16:37.050Z,1.10
2017-07-15T12:17:33.290Z,1.10
2017-07-15T12:18:29.527Z,1.50
2017-07-15T12:19:25.773Z,1.40
2017-07-15T12:20:22.044Z,1.50
2017-07-15T12:21:18.267Z,1.20
2017-07-15T12:22:14.531Z,1.40
2017-07-15T12:23:10.819Z,1.50
2017-07-15T12:24:07.058Z,1.00
2017-07-15T12:25:03.303Z,2.30
2017-07-15T12:25:59.547Z,1.40
2017-07-15T12:26:55.872Z,1.50
2017-07-15T12:27:52.115Z,1.30
2017-07-15T12:28:48.360Z,1.20
2017-07-15T12:29:44.603Z,1.20
2017-07-15T12:30:40.857Z,1.50
2017-07-15T12:31:37.087Z,1.20
2017-07-15T12:32:33.344Z,1.40
2017-07-15T12:33:29.574Z,1.70
2017-07-15T12:34:25.819Z,1.20
2017-07-15T12:35:22.083Z,1.10
2017-07-15T12:36:18.712Z,1.90
2017-07-15T12:37:14.986Z,1.30
2017-07-15T12:38:11.231Z,1.30
2017-07-15T12:39:07.478Z,1.10
2017-07-15T12:40:03.722Z,1.30
2017-07-15T12:40:59.957Z,1.10